Air Resources Laboratory banner image
Air Resources Laboratory web site National Oceanic and Atmospheric Administration (NOAA)

nc metar


K2DP 191256Z AUTO 25008KT 10SM FEW021 BKN090 BKN150 25/23 A2995 RMK AO2 LTG
 DSNT S SLPNO T02500230 $=
KAKH 191254Z AUTO 22005KT 10SM SCT007 OVC013 24/23 A3000 RMK AO2 SLP150
 T02440228=
KASJ 191255Z AUTO 19003KT 10SM SCT005 OVC009 23/23 A2996 RMK AO2 T02280228=
KAVL 191254Z 00000KT 10SM OVC004 21/19 A3006 RMK AO2 SLP155 T02060194=
KBUY 191254Z AUTO 23007KT 10SM BKN008 25/22 A2996 RMK AO2 SLP139 T02500222=
KCLT 191252Z 23005KT 10SM FEW010 BKN015 24/23 A3000 RMK AO2 SLP150 T02440228 $=
KDPL 191250Z AUTO 22006KT 10SM SCT015 25/22 A2998 RMK AO2=
KECG 191254Z 25007KT 10SM OVC013 24/24 A2994 RMK AO2 SLP139 T02440239=
KEDE 191255Z AUTO 28007KT 10SM OVC008 25/24 A2996 RMK AO2 T02520235=
KEQY 191253Z AUTO 24009KT 9SM BKN008 OVC017 24/22 A2999 RMK AO2 CIG 006V010
 SLP151 T02390217=
KEWN 191254Z 23007KT 10SM CLR 24/22 A2997 RMK AO2 SLP149 T02440222=
KEXX 191250Z AUTO 10SM SCT010 24/24 A2998 RMK AO2 T02400239=
KFAY 191253Z 22008KT 10SM BKN009 OVC024 25/22 A2998 RMK AO2 CIG 008V014 SLP144
 T02500222=
KFBG 191256Z AUTO 23005KT 10SM BKN012 OVC022 25/23 A2997 RMK AO2 SLP149
 T02480226=
KFQD 191250Z AUTO 00000KT 10SM SCT005 BKN095 22/22 A3001 RMK AO2=
KGEV 191255Z AUTO 28005KT 10SM OVC015 20/17 A3009 RMK AO2 T02020171=
KGSB 191256Z AUTO 24007KT 10SM OVC009 24/23 A2996 RMK AO2 SLP148 T02400226 $=
KGSO 191254Z 27005KT 10SM BKN007 24/22 A2998 RMK AO2 SLP140 T02390222=
KHBI 191245Z AUTO 23003KT 10SM OVC012 23/22 A3001 RMK AO2 T02270222=
KHFF 191256Z AUTO 25007KT 10SM BKN013 25/22 A2998 RMK AO2 SLP164 T02500223 $=
KHKY 191253Z 20003KT 3SM OVC005 22/21 A3000 RMK AO2 SFC VIS 10 SLP139 T02170211=
KHRJ 191250Z AUTO 00000KT 10SM SCT014 OVC021 24/24 A2998 RMK AO2 T02420242=
KHSE 191251Z AUTO 24010KT 9SM CLR 27/23 A2997 RMK AO2 SLP147 T02670233=
KILM 191253Z 25010KT 10SM CLR 26/22 A3000 RMK AO2 SLP157 T02610222=
KINT 191254Z 29004KT 10SM BKN008 24/22 A2999 RMK AO2 SLP145 T02390217=
KIPJ 191255Z AUTO 22003KT 10SM OVC010 23/21 A3000 RMK AO2 T02300214=
KISO 191256Z 24003KT 10SM OVC012 24/22 A2999=
KJNX 191250Z AUTO 22003KT 10SM OVC020 24/23 A2997 RMK AO2=
KJQF 191250Z 00000KT 7SM OVC011 24/22 A3002=
KLBT 191254Z AUTO 21008KT 10SM FEW010 OVC019 24/22 A2999 RMK AO2 SLP153
 T02440222=
KMEB 191252Z AUTO 23009KT 10SM OVC022 24/23 A2999 RMK AO2 SLP154 T02440228 TSNO=
KMQI 191245Z AUTO 26010G15KT 10SM SCT017 SCT024 OVC028 25/23 A2995 RMK AO2
 T02480228=
KMRH 191258Z AUTO 24011G19KT 10SM FEW065 27/24 A2998 RMK AO2 SLP152 T02670244=
KMWK 191255Z AUTO 00000KT 10SM OVC001 21/20 A3002 RMK AO2 T02140200=
KNCA 191256Z AUTO 23010KT 10SM CLR 26/23 A2997 RMK AO2 SLP152 T02610228=
KNKT 191254Z 22011KT 10SM CLR 26/23 A2998 RMK AO2 SLP147 T02610233=
KOAJ 191256Z AUTO 22009G14KT 10SM CLR 26/22 A2998 RMK AO2 SLP156 T02610222=
KOCW 191250Z AUTO 23005KT 10SM OVC017 24/23 A2997 RMK AO2 T02400226=
KPGV 191250Z AUTO 25003KT 10SM BKN011 BKN020 24/23 A2998 RMK AO2=
KPOB 191256Z AUTO 25006KT 10SM BKN012 OVC021 25/23 A2997 RMK AO2 SLP150
 T02510226 $=
KRDU 191251Z 25004KT 10SM R23R/5000VP6000FT BKN008 OVC014 23/23 A2997 RMK AO2
 SLP143 T02330228 $=
KRUQ 191250Z AUTO 25003KT 10SM SCT008 OVC016 24/22 A2999 RMK AO2 T02350221=
KRWI 191253Z AUTO 22004KT 10SM BKN009 OVC014 24/23 A2996 RMK AO2 CIG 006V012
 SLP144 T02390228=
KSOP 191256Z AUTO 23003KT 10SM OVC013 24/23 A2999 RMK AO2 SLP166 T02440233=
KSVH 191250Z AUTO 25003KT 10SM OVC008 24/21 A2999 RMK AO2 T02400214=
KTDF 191250Z AUTO 28004KT 10SM OVC008 22/21 A2998 RMK AO2=
KTNB 191255Z AUTO 00000KT 10SM OVC014 20/18 A3010 RMK AO2 T01990177=
KUKF 191250Z AUTO 00000KT 1/2SM FG OVC002 20/20 A3005 RMK AO2=
KVUJ 191250Z AUTO 00000KT 10SM OVC011 23/23 A3003 RMK AO2 T02330225=